메인 페이지
METAR-TAF:

METAR-TAF

공항 :

Wolf Creek Pass

Pagosa Springs, 콜로라도, 미국

위도: 37-27-05N, 경도: 106-48-01W, 고도: 3584m

현재 날씨관측

예보는 23분 전, 00:30시(UTC)에 발표되었습니다.
남서3kt
온도 -3°C
습도 54%
기압 1033 hPa
시정: 16.1km
맑음

METAR: KCPW 150030Z AUTO 22003KT 10SM CLR M03/M11 A3051 RMK AO2

시각: 17:53 (00:53 UTC)


TAF: 누락

4,000개 이상의 공항 관측 자료 및 예보 (METAR 및 TAF 보고).

지도상에서 검색 가능한 기상관측소가 노란 점과 빨간 점으로 표시되어 있습니다.

기상관측소 명을 보려면 표시 위로 마우스를 이동하세요.

날씨 관측과 예보를 보려면 클릭하세요.

지도 변경 : 확대하려면 엑스 표시가 있는 녹색 버튼, 축소하려면 빼기 표시가 있는 녹색 버튼, 다음 페이지의 지도를 보려면 녹색 화살표를 클릭하세요.


METAR-TAF: